PWSweather.com
Personal Weather Stations
Station Observations
KILMORRI1
Goose Lake, Morris, IL 60450

Goose LakeMorris, IL 60450

Lat: 41.34, Lon: -88.3

Elevation: 523

Station Type:

www.gooselakeweather.com

High Low Average
Temperature 37.2°F2.9°C 24.7°F-4.1°C 31.2°F-0.4°C
Dew Point 24.6°F-4.1°C 11.4°F-11.4°C 17.7°F-7.9°C
Winds 15.0 mph 24.1 kmh 1.2 mph 1.9 kmh 7.0 mph WSW11.3 kmh WSW
Wind Gusts 20.7 mph33.3 kmh 1.2 mph1.9 kmh 10.0 mph16.1 kmh
Humidity 75% 36% 58%
Pressure 30.13 in1020.3 mb 29.99 in1015.6 mb -
Precipitation 0.00 in0.0 mm - -
Hour Temp Dew Point Humidity Winds Wind Gusts Pressure Precip Precip Rate Daily Precip Total
12:00 AM 27.0°F-2.8°C 17.1°F-8.3°C 66% 4.6 mph SW7.4 kmh SW 5.8 mph9.3 kmh 30.03 in1016.9 mb - 0.00 in0.0 mm 0.00 in0.0 mm
12:10 AM 26.7°F-2.9°C 16.9°F-8.4°C 66% 3.5 mph SW5.6 kmh SW 3.5 mph5.6 kmh 30.03 in1016.9 mb - 0.00 in0.0 mm 0.00 in0.0 mm
12:20 AM 27.5°F-2.5°C 17.6°F-8.0°C 66% 3.5 mph SW5.6 kmh SW 3.5 mph5.6 kmh 30.03 in1016.9 mb - 0.00 in0.0 mm 0.00 in0.0 mm
12:30 AM 28.0°F-2.2°C 18.1°F-7.7°C 66% 5.8 mph SW9.3 kmh SW 6.9 mph11.1 kmh 30.04 in1017.3 mb - 0.00 in0.0 mm 0.00 in0.0 mm
12:40 AM 28.3°F-2.1°C 18.4°F-7.6°C 66% 4.6 mph SW7.4 kmh SW 6.9 mph11.1 kmh 30.03 in1016.9 mb - 0.00 in0.0 mm 0.00 in0.0 mm
12:50 AM 28.5°F-1.9°C 18.2°F-7.7°C 65% 4.6 mph SW7.4 kmh SW 5.8 mph9.3 kmh 30.03 in1016.9 mb - 0.00 in0.0 mm 0.00 in0.0 mm
01:00 AM 28.4°F-2.0°C 18.1°F-7.7°C 65% 3.5 mph SW5.6 kmh SW 3.5 mph5.6 kmh 30.02 in1016.6 mb - 0.00 in0.0 mm 0.00 in0.0 mm
01:10 AM 28.5°F-1.9°C 18.2°F-7.7°C 65% 3.5 mph SW5.6 kmh SW 4.6 mph7.4 kmh 30.02 in1016.6 mb - 0.00 in0.0 mm 0.00 in0.0 mm
01:20 AM 28.7°F-1.8°C 18.4°F-7.6°C 65% 3.5 mph SW5.6 kmh SW 6.9 mph11.1 kmh 30.02 in1016.6 mb - 0.00 in0.0 mm 0.00 in0.0 mm
01:30 AM 29.1°F-1.6°C 18.8°F-7.3°C 65% 5.8 mph SW9.3 kmh SW 10.4 mph16.7 kmh 30.02 in1016.6 mb - 0.00 in0.0 mm 0.00 in0.0 mm
01:40 AM 29.4°F-1.4°C 18.7°F-7.4°C 64% 5.8 mph SW9.3 kmh SW 10.4 mph16.7 kmh 30.03 in1016.9 mb - 0.00 in0.0 mm 0.00 in0.0 mm
01:50 AM 29.7°F-1.3°C 19.0°F-7.2°C 64% 5.8 mph SW9.3 kmh SW 10.4 mph16.7 kmh 30.03 in1016.9 mb - 0.00 in0.0 mm 0.00 in0.0 mm
02:00 AM 30.0°F-1.1°C 19.6°F-6.9°C 65% 4.6 mph SW7.4 kmh SW 6.9 mph11.1 kmh 30.03 in1016.9 mb - 0.00 in0.0 mm 0.00 in0.0 mm
02:10 AM 30.2°F-1.0°C 19.8°F-6.8°C 65% 8.1 mph SW13.0 kmh SW 13.8 mph22.2 kmh 30.03 in1016.9 mb - 0.00 in0.0 mm 0.00 in0.0 mm
02:20 AM 30.3°F-0.9°C 19.6°F-6.9°C 64% 5.8 mph SW9.3 kmh SW 6.9 mph11.1 kmh 30.03 in1016.9 mb - 0.00 in0.0 mm 0.00 in0.0 mm
02:30 AM 30.7°F-0.7°C 19.2°F-7.1°C 62% 4.6 mph SW7.4 kmh SW 8.1 mph13.0 kmh 30.02 in1016.6 mb - 0.00 in0.0 mm 0.00 in0.0 mm
02:40 AM 30.9°F-0.6°C 19.4°F-7.0°C 62% 4.6 mph SW7.4 kmh SW 8.1 mph13.0 kmh 30.02 in1016.6 mb - 0.00 in0.0 mm 0.00 in0.0 mm
02:50 AM 31.0°F-0.6°C 19.5°F-6.9°C 62% 4.6 mph SW7.4 kmh SW 5.8 mph9.3 kmh 30.01 in1016.3 mb - 0.00 in0.0 mm 0.00 in0.0 mm
03:00 AM 31.0°F-0.6°C 19.9°F-6.7°C 63% 2.3 mph SSW3.7 kmh SSW 3.5 mph5.6 kmh 30.01 in1016.3 mb - 0.00 in0.0 mm 0.00 in0.0 mm
03:10 AM 30.5°F-0.8°C 20.1°F-6.6°C 65% 2.3 mph SSW3.7 kmh SSW 3.5 mph5.6 kmh 30.00 in1015.9 mb - 0.00 in0.0 mm 0.00 in0.0 mm
03:20 AM 30.3°F-0.9°C 20.7°F-6.3°C 67% 1.2 mph SSW1.9 kmh SSW 1.2 mph1.9 kmh 30.00 in1015.9 mb - 0.00 in0.0 mm 0.00 in0.0 mm
03:30 AM 30.3°F-0.9°C 21.0°F-6.1°C 68% 2.3 mph SSW3.7 kmh SSW 3.5 mph5.6 kmh 30.00 in1015.9 mb - 0.00 in0.0 mm 0.00 in0.0 mm
03:40 AM 30.5°F-0.8°C 20.8°F-6.2°C 67% 2.3 mph S3.7 kmh S 2.3 mph3.7 kmh 30.00 in1015.9 mb - 0.00 in0.0 mm 0.00 in0.0 mm
03:50 AM 30.6°F-0.8°C 21.3°F-5.9°C 68% 2.3 mph SSW3.7 kmh SSW 2.3 mph3.7 kmh 29.99 in1015.6 mb - 0.00 in0.0 mm 0.00 in0.0 mm
04:00 AM 30.6°F-0.8°C 21.6°F-5.8°C 69% 2.3 mph SSW3.7 kmh SSW 3.5 mph5.6 kmh 29.99 in1015.6 mb - 0.00 in0.0 mm 0.00 in0.0 mm
04:10 AM 30.6°F-0.8°C 22.0°F-5.6°C 70% 2.3 mph SSW3.7 kmh SSW 3.5 mph5.6 kmh 29.99 in1015.6 mb - 0.00 in0.0 mm 0.00 in0.0 mm
04:20 AM 30.6°F-0.8°C 22.3°F-5.4°C 71% 2.3 mph SSW3.7 kmh SSW 3.5 mph5.6 kmh 29.99 in1015.6 mb - 0.00 in0.0 mm 0.00 in0.0 mm
04:30 AM 30.6°F-0.8°C 22.6°F-5.2°C 72% 1.2 mph SSW1.9 kmh SSW 2.3 mph3.7 kmh 29.99 in1015.6 mb - 0.00 in0.0 mm 0.00 in0.0 mm
04:40 AM 30.8°F-0.7°C 23.2°F-4.9°C 73% 3.5 mph SSW5.6 kmh SSW 3.5 mph5.6 kmh 29.99 in1015.6 mb - 0.00 in0.0 mm 0.00 in0.0 mm
04:50 AM 31.0°F-0.6°C 24.0°F-4.4°C 75% 3.5 mph SSW5.6 kmh SSW 5.8 mph9.3 kmh 29.99 in1015.6 mb - 0.00 in0.0 mm 0.00 in0.0 mm
05:00 AM 31.5°F-0.3°C 24.5°F-4.2°C 75% 5.8 mph SW9.3 kmh SW 8.1 mph13.0 kmh 29.99 in1015.6 mb - 0.00 in0.0 mm 0.00 in0.0 mm
05:10 AM 32.0°F0.0°C 24.6°F-4.1°C 74% 3.5 mph SW5.6 kmh SW 5.8 mph9.3 kmh 30.00 in1015.9 mb - 0.00 in0.0 mm 0.00 in0.0 mm
05:20 AM 32.2°F0.1°C 24.6°F-4.1°C 73% 3.5 mph SW5.6 kmh SW 3.5 mph5.6 kmh 29.99 in1015.6 mb - 0.00 in0.0 mm 0.00 in0.0 mm
05:30 AM 32.4°F0.2°C 24.4°F-4.2°C 72% 3.5 mph SW5.6 kmh SW 3.5 mph5.6 kmh 29.99 in1015.6 mb - 0.00 in0.0 mm 0.00 in0.0 mm
05:40 AM 32.3°F0.2°C 24.3°F-4.3°C 72% 3.5 mph SW5.6 kmh SW 4.6 mph7.4 kmh 29.99 in1015.6 mb - 0.00 in0.0 mm 0.00 in0.0 mm
05:50 AM 32.4°F0.2°C 24.4°F-4.2°C 72% 3.5 mph WSW5.6 kmh WSW 4.6 mph7.4 kmh 29.99 in1015.6 mb - 0.00 in0.0 mm 0.00 in0.0 mm
06:00 AM 32.0°F0.0°C 24.0°F-4.4°C 72% 2.3 mph SW3.7 kmh SW 4.6 mph7.4 kmh 29.99 in1015.6 mb - 0.00 in0.0 mm 0.00 in0.0 mm
06:10 AM 31.5°F-0.3°C 23.5°F-4.7°C 72% 3.5 mph WSW5.6 kmh WSW 4.6 mph7.4 kmh 30.00 in1015.9 mb - 0.00 in0.0 mm 0.00 in0.0 mm
06:20 AM 31.5°F-0.3°C 23.9°F-4.5°C 73% 3.5 mph WSW5.6 kmh WSW 5.8 mph9.3 kmh 30.00 in1015.9 mb - 0.00 in0.0 mm 0.00 in0.0 mm
06:30 AM 31.4°F-0.3°C 23.7°F-4.6°C 73% 3.5 mph WSW5.6 kmh WSW 8.1 mph13.0 kmh 30.00 in1015.9 mb - 0.00 in0.0 mm 0.00 in0.0 mm
06:40 AM 31.4°F-0.3°C 24.1°F-4.4°C 74% 5.8 mph W9.3 kmh W 9.2 mph14.8 kmh 30.00 in1015.9 mb - 0.00 in0.0 mm 0.00 in0.0 mm
06:50 AM 31.4°F-0.3°C 24.1°F-4.4°C 74% 5.8 mph W9.3 kmh W 10.4 mph16.7 kmh 30.00 in1015.9 mb - 0.00 in0.0 mm 0.00 in0.0 mm
07:00 AM 31.2°F-0.4°C 23.9°F-4.5°C 74% 5.8 mph W9.3 kmh W 9.2 mph14.8 kmh 30.00 in1015.9 mb - 0.00 in0.0 mm 0.00 in0.0 mm
07:10 AM 30.9°F-0.6°C 23.6°F-4.7°C 74% 4.6 mph WSW7.4 kmh WSW 5.8 mph9.3 kmh 30.01 in1016.3 mb - 0.00 in0.0 mm 0.00 in0.0 mm
07:20 AM 30.8°F-0.7°C 23.1°F-4.9°C 73% 6.9 mph WSW11.1 kmh WSW 15.0 mph24.1 kmh 30.02 in1016.6 mb - 0.00 in0.0 mm 0.00 in0.0 mm
07:30 AM 30.5°F-0.8°C 23.2°F-4.9°C 74% 8.1 mph WSW13.0 kmh WSW 11.5 mph18.5 kmh 30.02 in1016.6 mb - 0.00 in0.0 mm 0.00 in0.0 mm
07:40 AM 30.5°F-0.8°C 22.9°F-5.1°C 73% 9.2 mph W14.8 kmh W 11.5 mph18.5 kmh 30.02 in1016.6 mb - 0.00 in0.0 mm 0.00 in0.0 mm
07:50 AM 30.3°F-0.9°C 22.4°F-5.3°C 72% 6.9 mph W11.1 kmh W 9.2 mph14.8 kmh 30.02 in1016.6 mb - 0.00 in0.0 mm 0.00 in0.0 mm
08:00 AM 30.2°F-1.0°C 22.3°F-5.4°C 72% 9.2 mph W14.8 kmh W 12.7 mph20.4 kmh 30.03 in1016.9 mb - 0.00 in0.0 mm 0.00 in0.0 mm
08:10 AM 30.2°F-1.0°C 22.3°F-5.4°C 72% 5.8 mph W9.3 kmh W 8.1 mph13.0 kmh 30.03 in1016.9 mb - 0.00 in0.0 mm 0.00 in0.0 mm
08:20 AM 30.3°F-0.9°C 22.6°F-5.2°C 73% 8.1 mph W13.0 kmh W 10.4 mph16.7 kmh 30.03 in1016.9 mb - 0.00 in0.0 mm 0.00 in0.0 mm
08:30 AM 30.3°F-0.9°C 23.0°F-5.0°C 74% 8.1 mph W13.0 kmh W 16.1 mph25.9 kmh 30.03 in1016.9 mb - 0.00 in0.0 mm 0.00 in0.0 mm
08:40 AM 30.6°F-0.8°C 23.2°F-4.9°C 74% 6.9 mph WNW11.1 kmh WNW 13.8 mph22.2 kmh 30.04 in1017.3 mb - 0.00 in0.0 mm 0.00 in0.0 mm
08:50 AM 30.7°F-0.7°C 23.4°F-4.8°C 74% 4.6 mph W7.4 kmh W 11.5 mph18.5 kmh 30.04 in1017.3 mb - 0.00 in0.0 mm 0.00 in0.0 mm
09:00 AM 30.8°F-0.7°C 21.5°F-5.8°C 68% 8.1 mph W13.0 kmh W 9.2 mph14.8 kmh 30.04 in1017.3 mb - 0.00 in0.0 mm 0.00 in0.0 mm
09:10 AM 31.0°F-0.6°C 21.0°F-6.1°C 66% 6.9 mph WNW11.1 kmh WNW 17.3 mph27.8 kmh 30.04 in1017.3 mb - 0.00 in0.0 mm 0.00 in0.0 mm
09:20 AM 31.1°F-0.5°C 19.6°F-6.9°C 62% 10.4 mph WNW16.7 kmh WNW 12.7 mph20.4 kmh 30.05 in1017.6 mb - 0.00 in0.0 mm 0.00 in0.0 mm
09:30 AM 31.4°F-0.3°C 20.6°F-6.3°C 64% 11.5 mph W18.5 kmh W 20.7 mph33.3 kmh 30.05 in1017.6 mb - 0.00 in0.0 mm 0.00 in0.0 mm
09:40 AM 31.4°F-0.3°C 19.5°F-6.9°C 61% 8.1 mph WNW13.0 kmh WNW 18.4 mph29.6 kmh 30.05 in1017.6 mb - 0.00 in0.0 mm 0.00 in0.0 mm
09:50 AM 31.3°F-0.4°C 18.2°F-7.7°C 58% 10.4 mph WNW16.7 kmh WNW 19.6 mph31.5 kmh 30.06 in1017.9 mb - 0.00 in0.0 mm 0.00 in0.0 mm
10:00 AM 31.6°F-0.2°C 16.8°F-8.4°C 54% 10.4 mph W16.7 kmh W 19.6 mph31.5 kmh 30.06 in1017.9 mb - 0.00 in0.0 mm 0.00 in0.0 mm
10:10 AM 31.8°F-0.1°C 17.5°F-8.1°C 55% 9.2 mph W14.8 kmh W 11.5 mph18.5 kmh 30.06 in1017.9 mb - 0.00 in0.0 mm 0.00 in0.0 mm
10:20 AM 31.8°F-0.1°C 17.0°F-8.3°C 54% 11.5 mph W18.5 kmh W 16.1 mph25.9 kmh 30.06 in1017.9 mb - 0.00 in0.0 mm 0.00 in0.0 mm
10:30 AM 31.8°F-0.1°C 15.2°F-9.3°C 50% 12.7 mph WNW20.4 kmh WNW 16.1 mph25.9 kmh 30.06 in1017.9 mb - 0.00 in0.0 mm 0.00 in0.0 mm
10:40 AM 32.5°F0.3°C 15.9°F-8.9°C 50% 10.4 mph W16.7 kmh W 12.7 mph20.4 kmh 30.06 in1017.9 mb - 0.00 in0.0 mm 0.00 in0.0 mm
10:50 AM 32.8°F0.4°C 14.3°F-9.8°C 46% 11.5 mph W18.5 kmh W 18.4 mph29.6 kmh 30.06 in1017.9 mb - 0.00 in0.0 mm 0.00 in0.0 mm
11:00 AM 33.3°F0.7°C 14.8°F-9.6°C 46% 12.7 mph W20.4 kmh W 13.8 mph22.2 kmh 30.06 in1017.9 mb - 0.00 in0.0 mm 0.00 in0.0 mm
11:10 AM 33.3°F0.7°C 13.7°F-10.2°C 44% 12.7 mph W20.4 kmh W 15.0 mph24.1 kmh 30.06 in1017.9 mb - 0.00 in0.0 mm 0.00 in0.0 mm
11:20 AM 33.9°F1.1°C 13.7°F-10.2°C 43% 8.1 mph W13.0 kmh W 11.5 mph18.5 kmh 30.06 in1017.9 mb - 0.00 in0.0 mm 0.00 in0.0 mm
11:30 AM 33.8°F1.0°C 13.1°F-10.5°C 42% 12.7 mph W20.4 kmh W 18.4 mph29.6 kmh 30.05 in1017.6 mb - 0.00 in0.0 mm 0.00 in0.0 mm
11:40 AM 34.0°F1.1°C 14.3°F-9.8°C 44% 8.1 mph W13.0 kmh W 15.0 mph24.1 kmh 30.05 in1017.6 mb - 0.00 in0.0 mm 0.00 in0.0 mm
11:50 AM 34.2°F1.2°C 15.5°F-9.2°C 46% 10.4 mph WSW16.7 kmh WSW 11.5 mph18.5 kmh 30.05 in1017.6 mb - 0.00 in0.0 mm 0.00 in0.0 mm
12:00 PM 34.7°F1.5°C 15.5°F-9.2°C 45% 8.1 mph W13.0 kmh W 13.8 mph22.2 kmh 30.05 in1017.6 mb - 0.00 in0.0 mm 0.00 in0.0 mm
12:10 PM 35.1°F1.7°C 15.3°F-9.3°C 44% 8.1 mph WSW13.0 kmh WSW 13.8 mph22.2 kmh 30.05 in1017.6 mb - 0.00 in0.0 mm 0.00 in0.0 mm
12:20 PM 35.1°F1.7°C 15.3°F-9.3°C 44% 8.1 mph W13.0 kmh W 18.4 mph29.6 kmh 30.05 in1017.6 mb - 0.00 in0.0 mm 0.00 in0.0 mm
12:30 PM 35.2°F1.8°C 13.3°F-10.4°C 40% 11.5 mph WSW18.5 kmh WSW 12.7 mph20.4 kmh 30.04 in1017.3 mb - 0.00 in0.0 mm 0.00 in0.0 mm
12:40 PM 35.4°F1.9°C 12.9°F-10.6°C 39% 11.5 mph WSW18.5 kmh WSW 16.1 mph25.9 kmh 30.05 in1017.6 mb - 0.00 in0.0 mm 0.00 in0.0 mm
12:50 PM 35.6°F2.0°C 12.4°F-10.9°C 38% 15.0 mph W24.1 kmh W 19.6 mph31.5 kmh 30.05 in1017.6 mb - 0.00 in0.0 mm 0.00 in0.0 mm
01:00 PM 35.6°F2.0°C 14.2°F-9.9°C 41% 8.1 mph WSW13.0 kmh WSW 11.5 mph18.5 kmh 30.05 in1017.6 mb - 0.00 in0.0 mm 0.00 in0.0 mm
01:10 PM 36.4°F2.4°C 13.2°F-10.4°C 38% 10.4 mph W16.7 kmh W 12.7 mph20.4 kmh 30.05 in1017.6 mb - 0.00 in0.0 mm 0.00 in0.0 mm
01:20 PM 35.8°F2.1°C 13.2°F-10.4°C 39% 9.2 mph WSW14.8 kmh WSW 12.7 mph20.4 kmh 30.04 in1017.3 mb - 0.00 in0.0 mm 0.00 in0.0 mm
01:30 PM 36.4°F2.4°C 14.3°F-9.8°C 40% 8.1 mph WSW13.0 kmh WSW 13.8 mph22.2 kmh 30.04 in1017.3 mb - 0.00 in0.0 mm 0.00 in0.0 mm
01:40 PM 36.6°F2.6°C 13.9°F-10.1°C 39% 6.9 mph W11.1 kmh W 13.8 mph22.2 kmh 30.04 in1017.3 mb - 0.00 in0.0 mm 0.00 in0.0 mm
01:50 PM 36.5°F2.5°C 13.9°F-10.1°C 39% 9.2 mph W14.8 kmh W 13.8 mph22.2 kmh 30.04 in1017.3 mb - 0.00 in0.0 mm 0.00 in0.0 mm
02:00 PM 36.7°F2.6°C 13.4°F-10.3°C 38% 10.4 mph W16.7 kmh W 19.6 mph31.5 kmh 30.04 in1017.3 mb - 0.00 in0.0 mm 0.00 in0.0 mm
02:10 PM 36.4°F2.4°C 13.8°F-10.1°C 39% 6.9 mph W11.1 kmh W 15.0 mph24.1 kmh 30.04 in1017.3 mb - 0.00 in0.0 mm 0.00 in0.0 mm
02:20 PM 37.2°F2.9°C 14.5°F-9.7°C 39% 3.5 mph W5.6 kmh W 6.9 mph11.1 kmh 30.04 in1017.3 mb - 0.00 in0.0 mm 0.00 in0.0 mm
02:30 PM 36.5°F2.5°C 13.3°F-10.4°C 38% 8.1 mph W13.0 kmh W 13.8 mph22.2 kmh 30.04 in1017.3 mb - 0.00 in0.0 mm 0.00 in0.0 mm
02:40 PM 36.2°F2.3°C 13.6°F-10.2°C 39% 4.6 mph WSW7.4 kmh WSW 11.5 mph18.5 kmh 30.05 in1017.6 mb - 0.00 in0.0 mm 0.00 in0.0 mm
02:50 PM 36.0°F2.2°C 12.8°F-10.7°C 38% 9.2 mph SW14.8 kmh SW 13.8 mph22.2 kmh 30.05 in1017.6 mb - 0.00 in0.0 mm 0.00 in0.0 mm
03:00 PM 35.8°F2.1°C 11.4°F-11.4°C 36% 10.4 mph WSW16.7 kmh WSW 18.4 mph29.6 kmh 30.05 in1017.6 mb - 0.00 in0.0 mm 0.00 in0.0 mm
03:10 PM 35.6°F2.0°C 12.4°F-10.9°C 38% 9.2 mph W14.8 kmh W 11.5 mph18.5 kmh 30.05 in1017.6 mb - 0.00 in0.0 mm 0.00 in0.0 mm
03:20 PM 35.3°F1.8°C 11.6°F-11.3°C 37% 9.2 mph W14.8 kmh W 16.1 mph25.9 kmh 30.05 in1017.6 mb - 0.00 in0.0 mm 0.00 in0.0 mm
03:30 PM 35.3°F1.8°C 12.8°F-10.7°C 39% 4.6 mph W7.4 kmh W 8.1 mph13.0 kmh 30.05 in1017.6 mb - 0.00 in0.0 mm 0.00 in0.0 mm
03:40 PM 35.1°F1.7°C 13.2°F-10.4°C 40% 4.6 mph W7.4 kmh W 6.9 mph11.1 kmh 30.05 in1017.6 mb - 0.00 in0.0 mm 0.00 in0.0 mm
03:50 PM 34.8°F1.6°C 13.5°F-10.3°C 41% 5.8 mph W9.3 kmh W 12.7 mph20.4 kmh 30.05 in1017.6 mb - 0.00 in0.0 mm 0.00 in0.0 mm
04:00 PM 34.3°F1.3°C 13.5°F-10.3°C 42% 5.8 mph W9.3 kmh W 8.1 mph13.0 kmh 30.06 in1017.9 mb - 0.00 in0.0 mm 0.00 in0.0 mm
04:10 PM 33.9°F1.1°C 13.2°F-10.4°C 42% 4.6 mph W7.4 kmh W 8.1 mph13.0 kmh 30.06 in1017.9 mb - 0.00 in0.0 mm 0.00 in0.0 mm
04:20 PM 33.5°F0.8°C 12.8°F-10.7°C 42% 3.5 mph W5.6 kmh W 3.5 mph5.6 kmh 30.05 in1017.6 mb - 0.00 in0.0 mm 0.00 in0.0 mm
04:30 PM 32.8°F0.4°C 13.2°F-10.4°C 44% 5.8 mph W9.3 kmh W 9.2 mph14.8 kmh 30.06 in1017.9 mb - 0.00 in0.0 mm 0.00 in0.0 mm
04:40 PM 32.5°F0.3°C 13.5°F-10.3°C 45% 3.5 mph WSW5.6 kmh WSW 8.1 mph13.0 kmh 30.06 in1017.9 mb - 0.00 in0.0 mm 0.00 in0.0 mm
04:50 PM 32.4°F0.2°C 13.9°F-10.1°C 46% 5.8 mph W9.3 kmh W 8.1 mph13.0 kmh 30.06 in1017.9 mb - 0.00 in0.0 mm 0.00 in0.0 mm
05:00 PM 32.4°F0.2°C 14.3°F-9.8°C 47% 4.6 mph WSW7.4 kmh WSW 11.5 mph18.5 kmh 30.07 in1018.3 mb - 0.00 in0.0 mm 0.00 in0.0 mm
05:10 PM 32.1°F0.1°C 14.6°F-9.7°C 48% 4.6 mph W7.4 kmh W 8.1 mph13.0 kmh 30.07 in1018.3 mb - 0.00 in0.0 mm 0.00 in0.0 mm
05:20 PM 31.8°F-0.1°C 14.8°F-9.6°C 49% 5.8 mph W9.3 kmh W 6.9 mph11.1 kmh 30.07 in1018.3 mb - 0.00 in0.0 mm 0.00 in0.0 mm
05:30 PM 31.3°F-0.4°C 15.2°F-9.3°C 51% 2.3 mph W3.7 kmh W 3.5 mph5.6 kmh 30.07 in1018.3 mb - 0.00 in0.0 mm 0.00 in0.0 mm
05:40 PM 30.6°F-0.8°C 15.5°F-9.2°C 53% 2.3 mph W3.7 kmh W 3.5 mph5.6 kmh 30.08 in1018.6 mb - 0.00 in0.0 mm 0.00 in0.0 mm
05:50 PM 30.4°F-0.9°C 15.7°F-9.1°C 54% 5.8 mph W9.3 kmh W 9.2 mph14.8 kmh 30.08 in1018.6 mb - 0.00 in0.0 mm 0.00 in0.0 mm
06:00 PM 30.8°F-0.7°C 16.1°F-8.8°C 54% 4.6 mph W7.4 kmh W 6.9 mph11.1 kmh 30.08 in1018.6 mb - 0.00 in0.0 mm 0.00 in0.0 mm
06:10 PM 30.7°F-0.7°C 16.8°F-8.4°C 56% 6.9 mph W11.1 kmh W 10.4 mph16.7 kmh 30.08 in1018.6 mb - 0.00 in0.0 mm 0.00 in0.0 mm
06:20 PM 30.6°F-0.8°C 16.7°F-8.5°C 56% 9.2 mph W14.8 kmh W 12.7 mph20.4 kmh 30.08 in1018.6 mb - 0.00 in0.0 mm 0.00 in0.0 mm
06:30 PM 30.5°F-0.8°C 17.4°F-8.1°C 58% 8.1 mph W13.0 kmh W 10.4 mph16.7 kmh 30.09 in1019.0 mb - 0.00 in0.0 mm 0.00 in0.0 mm
06:40 PM 30.4°F-0.9°C 17.0°F-8.3°C 57% 6.9 mph W11.1 kmh W 15.0 mph24.1 kmh 30.09 in1019.0 mb - 0.00 in0.0 mm 0.00 in0.0 mm
06:50 PM 30.3°F-0.9°C 16.5°F-8.6°C 56% 8.1 mph W13.0 kmh W 11.5 mph18.5 kmh 30.09 in1019.0 mb - 0.00 in0.0 mm 0.00 in0.0 mm
07:00 PM 30.2°F-1.0°C 16.4°F-8.7°C 56% 8.1 mph W13.0 kmh W 11.5 mph18.5 kmh 30.09 in1019.0 mb - 0.00 in0.0 mm 0.00 in0.0 mm
07:10 PM 29.9°F-1.2°C 16.1°F-8.8°C 56% 8.1 mph WSW13.0 kmh WSW 11.5 mph18.5 kmh 30.10 in1019.3 mb - 0.00 in0.0 mm 0.00 in0.0 mm
07:20 PM 29.7°F-1.3°C 15.9°F-8.9°C 56% 8.1 mph WSW13.0 kmh WSW 11.5 mph18.5 kmh 30.10 in1019.3 mb - 0.00 in0.0 mm 0.00 in0.0 mm
07:30 PM 29.5°F-1.4°C 16.1°F-8.8°C 57% 6.9 mph W11.1 kmh W 9.2 mph14.8 kmh 30.10 in1019.3 mb - 0.00 in0.0 mm 0.00 in0.0 mm
07:40 PM 29.4°F-1.4°C 16.0°F-8.9°C 57% 5.8 mph WSW9.3 kmh WSW 10.4 mph16.7 kmh 30.10 in1019.3 mb - 0.00 in0.0 mm 0.00 in0.0 mm
07:50 PM 29.2°F-1.6°C 16.2°F-8.8°C 58% 4.6 mph WSW7.4 kmh WSW 11.5 mph18.5 kmh 30.10 in1019.3 mb - 0.00 in0.0 mm 0.00 in0.0 mm
08:00 PM 29.4°F-1.4°C 16.1°F-8.8°C 57% 6.9 mph WSW11.1 kmh WSW 11.5 mph18.5 kmh 30.10 in1019.3 mb - 0.00 in0.0 mm 0.00 in0.0 mm
08:10 PM 29.6°F-1.3°C 16.3°F-8.7°C 57% 9.2 mph WSW14.8 kmh WSW 11.5 mph18.5 kmh 30.10 in1019.3 mb - 0.00 in0.0 mm 0.00 in0.0 mm
08:20 PM 29.7°F-1.3°C 16.3°F-8.7°C 57% 6.9 mph W11.1 kmh W 11.5 mph18.5 kmh 30.10 in1019.3 mb - 0.00 in0.0 mm 0.00 in0.0 mm
08:30 PM 29.7°F-1.3°C 16.3°F-8.7°C 57% 8.1 mph W13.0 kmh W 11.5 mph18.5 kmh 30.09 in1019.0 mb - 0.00 in0.0 mm 0.00 in0.0 mm
08:40 PM 29.5°F-1.4°C 16.5°F-8.6°C 58% 8.1 mph W13.0 kmh W 12.7 mph20.4 kmh 30.09 in1019.0 mb - 0.00 in0.0 mm 0.00 in0.0 mm
08:50 PM 29.3°F-1.5°C 16.7°F-8.5°C 59% 10.4 mph WSW16.7 kmh WSW 16.1 mph25.9 kmh 30.10 in1019.3 mb - 0.00 in0.0 mm 0.00 in0.0 mm
09:00 PM 29.0°F-1.7°C 16.4°F-8.7°C 59% 8.1 mph W13.0 kmh W 11.5 mph18.5 kmh 30.10 in1019.3 mb - 0.00 in0.0 mm 0.00 in0.0 mm
09:10 PM 28.7°F-1.8°C 16.6°F-8.6°C 60% 5.8 mph W9.3 kmh W 10.4 mph16.7 kmh 30.10 in1019.3 mb - 0.00 in0.0 mm 0.00 in0.0 mm
09:20 PM 28.5°F-1.9°C 16.7°F-8.5°C 61% 5.8 mph WSW9.3 kmh WSW 10.4 mph16.7 kmh 30.10 in1019.3 mb - 0.00 in0.0 mm 0.00 in0.0 mm
09:30 PM 28.2°F-2.1°C 16.9°F-8.4°C 62% 8.1 mph W13.0 kmh W 11.5 mph18.5 kmh 30.10 in1019.3 mb - 0.00 in0.0 mm 0.00 in0.0 mm
09:40 PM 28.1°F-2.2°C 16.7°F-8.5°C 62% 8.1 mph WNW13.0 kmh WNW 11.5 mph18.5 kmh 30.10 in1019.3 mb - 0.00 in0.0 mm 0.00 in0.0 mm
09:50 PM 27.8°F-2.3°C 16.9°F-8.4°C 63% 5.8 mph W9.3 kmh W 11.5 mph18.5 kmh 30.11 in1019.6 mb - 0.00 in0.0 mm 0.00 in0.0 mm
10:00 PM 27.4°F-2.6°C 16.8°F-8.4°C 64% 5.8 mph WSW9.3 kmh WSW 9.2 mph14.8 kmh 30.11 in1019.6 mb - 0.00 in0.0 mm 0.00 in0.0 mm
10:10 PM 27.2°F-2.7°C 17.0°F-8.3°C 65% 5.8 mph W9.3 kmh W 8.1 mph13.0 kmh 30.11 in1019.6 mb - 0.00 in0.0 mm 0.00 in0.0 mm
10:20 PM 26.9°F-2.8°C 17.0°F-8.3°C 66% 8.1 mph W13.0 kmh W 11.5 mph18.5 kmh 30.11 in1019.6 mb - 0.00 in0.0 mm 0.00 in0.0 mm
10:30 PM 26.5°F-3.1°C 17.0°F-8.3°C 67% 4.6 mph W7.4 kmh W 10.4 mph16.7 kmh 30.12 in1020.0 mb - 0.00 in0.0 mm 0.00 in0.0 mm
10:40 PM 26.2°F-3.2°C 16.7°F-8.5°C 67% 6.9 mph WNW11.1 kmh WNW 15.0 mph24.1 kmh 30.12 in1020.0 mb - 0.00 in0.0 mm 0.00 in0.0 mm
10:50 PM 25.8°F-3.4°C 16.7°F-8.5°C 68% 4.6 mph W7.4 kmh W 10.4 mph16.7 kmh 30.12 in1020.0 mb - 0.00 in0.0 mm 0.00 in0.0 mm
11:00 PM 25.3°F-3.7°C 16.5°F-8.6°C 69% 6.9 mph W11.1 kmh W 12.7 mph20.4 kmh 30.12 in1020.0 mb - 0.00 in0.0 mm 0.00 in0.0 mm
11:10 PM 25.1°F-3.8°C 16.7°F-8.5°C 70% 8.1 mph W13.0 kmh W 11.5 mph18.5 kmh 30.12 in1020.0 mb - 0.00 in0.0 mm 0.00 in0.0 mm
11:20 PM 24.8°F-4.0°C 16.7°F-8.5°C 71% 6.9 mph W11.1 kmh W 11.5 mph18.5 kmh 30.12 in1020.0 mb - 0.00 in0.0 mm 0.00 in0.0 mm
11:30 PM 24.7°F-4.1°C 16.7°F-8.5°C 71% 8.1 mph W13.0 kmh W 11.5 mph18.5 kmh 30.12 in1020.0 mb - 0.00 in0.0 mm 0.00 in0.0 mm
11:40 PM 25.0°F-3.9°C 16.9°F-8.4°C 71% 6.9 mph WNW11.1 kmh WNW 13.8 mph22.2 kmh 30.12 in1020.0 mb - 0.00 in0.0 mm 0.00 in0.0 mm
11:50 PM 25.2°F-3.8°C 17.1°F-8.3°C 71% 4.6 mph W7.4 kmh W 6.9 mph11.1 kmh 30.13 in1020.3 mb - 0.00 in0.0 mm 0.00 in0.0 mm